KCRW/CRW METAR and TAF weather

Enter ICAO airport designator
Station Type Date Time Source
KCRW METAR 2018/12/10 16:54 UTC NOAA

KCRW 101654Z 00000KT 10SM FEW014 SCT300 M01/M04 A3019 RMK AO2 SLP234 T10061039


Station Type Date Time Source
KCRW Decoded METAR 2018/12/10 16:54 UTC NOAA

YEAGER AIRPORT, WV, United States (KCRW) 38-22N 081-36W 309M
Dec 10, 2018 - 11:54 AM EST / 2018.12.10 1654 UTC
Wind: Calm:0
Visibility: 10 mile(s):0
Sky conditions: partly cloudy
Temperature: 30.9 F (-0.6 C)
Dew Point: 25.0 F (-3.9 C)
Relative Humidity: 78%
Pressure (altimeter): 30.19 in. Hg (1022 hPa)
ob: KCRW 101654Z 00000KT 10SM FEW014 SCT300 M01/M04 A3019 RMK AO2 SLP234 T10061039
cycle: 17

Station Type Date Time Source
KCRW TAF 2018/12/10 18:28 UTC NOAA

TAF KCRW 101726Z 1018/1118 VRB03KT P6SM FEW250
FM111400 22004KT P6SM FEW250


Example: see airport list